< < Back
Terminal Aerodrome Forecast


Current Version              Previous Versions:   1  2  3  4  5  6  7  8  9  

Terminal Aerodrome Forecast

307
FTUS42 KFFC 010535
TAFCSG
TAF
KCSG 010535Z 0106/0206 17005KT P6SM SCT035
     FM011000 16004KT P6SM BKN015
     FM011400 21006KT P6SM OVC025
     FM011600 22008KT P6SM VCSH BKN035
     FM012000 23009KT 4SM -TSRA BKN030CB=



Latest METAR

900
SAUS70 KWBC 011300 RRH
MTRCSG
METAR KCSG 011251Z 13003KT 10SM CLR 22/19 A3002 RMK AO2 SLP162
T02220189


USA.gov is the U.S. government's official web portal to all federal, state and local government web resources and services.